KSAR/SAR METAR and TAF weather

Enter ICAO airport designator
Station Type Date Time Source
KSAR METAR 2020/03/31 13:55 UTC NOAA

KSAR 311355Z AUTO 05003KT 10SM SCT120 09/04 A3001 RMK AO2 T00890036


Station Type Date Time Source
KSAR Decoded METAR 2020/03/31 13:55 UTC NOAA

Sparta, Sparta Community-Hunter Field Airport, IL, United States (KSAR) 38-08-56N 089-41-55W
Mar 31, 2020 - 09:55 AM EDT / 2020.03.31 1355 UTC
Wind: from the NE (050 degrees) at 3 MPH (3 KT):0
Visibility: 10 mile(s):0
Sky conditions: partly cloudy
Temperature: 48.0 F (8.9 C)
Dew Point: 38.5 F (3.6 C)
Relative Humidity: 69%
Pressure (altimeter): 30.01 in. Hg (1016 hPa)
ob: KSAR 311355Z AUTO 05003KT 10SM SCT120 09/04 A3001 RMK AO2 T00890036
cycle: 14

Station Type Date Time Source
KSAR TAF UTC NOAA

Error!

Example: see airport list